Time;durP1;ratioP1;P1;durP2;ratioP2;P2;SDS_P1;SDS_P2;PMS_P1;PMS_P2;Temp;Humidity;BMP_temperature;BMP_pressure;BME280_temperature;BME280_humidity;BME280_pressure;Samples;Min_cycle;Max_cycle;Signal;HPM_P1;HPM_P2
2021/04/16 00:00:40;;;;;;;4.32;2.08;;;;;;;;;;5026332;28;20037;-78
2021/04/16 00:03:07;;;;;;;8.07;2.22;;;;;;;;;;5029616;28;20063;-78
2021/04/16 00:05:35;;;;;;;5.45;2.63;;;;;;;;;;5045107;28;20474;-78
2021/04/16 00:08:01;;;;;;;4.18;1.90;;;;;;;;;;5066190;28;20056;-78
2021/04/16 00:10:30;;;;;;;5.40;2.20;;;;;;;;;;5054012;28;20044;-78
2021/04/16 00:12:57;;;;;;;5.82;2.22;;;;;;;;;;5055565;28;20048;-78
2021/04/16 00:15:24;;;;;;;5.78;2.20;;;;;;;;;;5021617;28;20171;-78
2021/04/16 00:17:51;;;;;;;7.97;2.58;;;;;;;;;;5060254;28;20484;-78
2021/04/16 00:20:19;;;;;;;10.32;2.22;;;;;;;;;;5046940;28;20373;-78
2021/04/16 00:22:45;;;;;;;5.30;2.40;;;;;;;;;;5061202;28;22047;-78
2021/04/16 00:25:14;;;;;;;7.25;2.45;;;;;;;;;;5014491;28;20110;-78
2021/04/16 00:27:40;;;;;;;8.13;2.33;;;;;;;;;;5049622;28;20044;-78
2021/04/16 00:30:07;;;;;;;6.45;2.30;;;;;;;;;;5050445;28;20109;-78
2021/04/16 00:32:34;;;;;;;6.97;2.50;;;;;;;;;;5034027;28;20045;-78
2021/04/16 00:35:00;;;;;;;9.90;3.50;;;;;;;;;;5044009;28;20045;-78
2021/04/16 00:37:27;;;;;;;7.55;2.63;;;;;;;;;;5031449;28;20096;-78
2021/04/16 00:39:53;;;;;;;5.10;2.38;;;;;;;;;;5050601;28;20045;-78
2021/04/16 00:42:19;;;;;;;9.73;2.65;;;;;;;;;;5028590;28;20178;-78
2021/04/16 00:44:45;;;;;;;6.28;2.53;;;;;;;;;;5062826;28;20127;-78
2021/04/16 00:47:14;;;;;;;5.95;2.58;;;;;;;;;;5065611;28;20051;-78
2021/04/16 00:49:43;;;;;;;7.35;2.65;;;;;;;;;;5070204;28;20044;-78
2021/04/16 00:52:09;;;;;;;8.52;2.80;;;;;;;;;;5063528;28;20060;-78
2021/04/16 00:54:38;;;;;;;7.15;2.20;;;;;;;;;;5058632;28;20048;-78
2021/04/16 00:57:05;;;;;;;7.43;2.38;;;;;;;;;;5059958;28;20488;-78
2021/04/16 00:59:33;;;;;;;6.35;2.63;;;;;;;;;;5061363;28;20172;-78
2021/04/16 01:02:01;;;;;;;4.97;1.85;;;;;;;;;;5062939;28;20037;-78
2021/04/16 01:04:28;;;;;;;5.43;2.72;;;;;;;;;;5062424;28;20119;-78
2021/04/16 01:06:54;;;;;;;8.35;2.55;;;;;;;;;;5064722;28;20408;-78
2021/04/16 01:09:20;;;;;;;8.05;2.78;;;;;;;;;;5063069;28;20492;-78
2021/04/16 01:11:47;;;;;;;7.57;2.22;;;;;;;;;;5065545;28;20135;-78
2021/04/16 01:14:14;;;;;;;5.78;2.15;;;;;;;;;;5064113;28;20074;-78
2021/04/16 01:16:40;;;;;;;5.22;2.00;;;;;;;;;;5064627;28;20045;-78
2021/04/16 01:19:11;;;;;;;8.18;2.72;;;;;;;;;;5066898;28;20098;-78
2021/04/16 01:21:42;;;;;;;5.80;2.42;;;;;;;;;;5065484;28;20388;-78
2021/04/16 01:24:15;;;;;;;6.05;2.10;;;;;;;;;;5060943;28;20116;-78
2021/04/16 01:26:42;;;;;;;7.82;2.17;;;;;;;;;;5056485;28;20044;-78
2021/04/16 01:29:08;;;;;;;8.82;2.08;;;;;;;;;;5060604;28;20054;-78
2021/04/16 01:31:35;;;;;;;12.63;3.90;;;;;;;;;;5057631;28;20113;-78
2021/04/16 01:34:02;;;;;;;5.25;2.08;;;;;;;;;;5059572;28;20447;-78
2021/04/16 01:36:30;;;;;;;6.57;2.00;;;;;;;;;;5053283;28;20584;-78
2021/04/16 01:38:58;;;;;;;5.63;2.25;;;;;;;;;;5062918;28;20044;-78
2021/04/16 01:41:25;;;;;;;6.05;1.95;;;;;;;;;;5056441;28;20132;-78
2021/04/16 01:43:57;;;;;;;7.72;2.20;;;;;;;;;;5060316;28;20057;-78
2021/04/16 01:46:23;;;;;;;5.40;1.80;;;;;;;;;;5056700;28;20044;-78
2021/04/16 01:48:51;;;;;;;7.25;2.25;;;;;;;;;;5058414;28;20101;-78
2021/04/16 01:51:20;;;;;;;7.53;2.30;;;;;;;;;;5063110;28;20111;-78
2021/04/16 01:53:46;;;;;;;4.32;1.70;;;;;;;;;;5065666;28;20050;-78
2021/04/16 01:56:14;;;;;;;8.27;2.20;;;;;;;;;;5065663;28;20047;-78
2021/04/16 01:58:40;;;;;;;4.47;1.70;;;;;;;;;;5069753;28;20094;-78
2021/04/16 02:01:07;;;;;;;6.35;1.95;;;;;;;;;;5061920;28;20124;-78
2021/04/16 02:03:33;;;;;;;6.15;2.47;;;;;;;;;;5062252;28;20197;-78
2021/04/16 02:06:00;;;;;;;5.10;2.25;;;;;;;;;;5066794;28;20068;-78
2021/04/16 02:08:27;;;;;;;5.63;1.90;;;;;;;;;;5064362;28;20041;-78
2021/04/16 02:10:53;;;;;;;10.23;2.22;;;;;;;;;;5059922;28;20090;-78
2021/04/16 02:13:19;;;;;;;9.70;2.28;;;;;;;;;;5064064;28;20105;-78
2021/04/16 02:15:46;;;;;;;7.20;2.15;;;;;;;;;;5063475;28;20037;-78
2021/04/16 02:18:12;;;;;;;5.85;1.90;;;;;;;;;;5056209;28;20036;-78
2021/04/16 02:20:38;;;;;;;9.13;2.45;;;;;;;;;;5064511;28;20452;-78
2021/04/16 02:23:05;;;;;;;7.40;2.17;;;;;;;;;;5064694;28;20052;-78
2021/04/16 02:25:31;;;;;;;7.13;2.22;;;;;;;;;;5065431;28;20141;-78
2021/04/16 02:27:58;;;;;;;7.15;2.17;;;;;;;;;;5067476;28;20044;-78
2021/04/16 02:30:26;;;;;;;9.88;1.90;;;;;;;;;;5060130;28;20037;-78
2021/04/16 02:32:53;;;;;;;10.57;2.25;;;;;;;;;;5062840;28;20068;-78
2021/04/16 02:35:19;;;;;;;6.40;2.00;;;;;;;;;;5065234;28;20028;-78
2021/04/16 02:37:45;;;;;;;7.75;2.35;;;;;;;;;;5064128;28;20064;-78
2021/04/16 02:40:13;;;;;;;8.07;2.38;;;;;;;;;;5060633;28;20040;-78
2021/04/16 02:42:39;;;;;;;8.93;2.47;;;;;;;;;;5063719;28;20039;-78
2021/04/16 02:45:07;;;;;;;6.60;2.00;;;;;;;;;;5046562;28;20045;-78
2021/04/16 02:47:33;;;;;;;9.75;2.35;;;;;;;;;;5041026;28;20038;-78
2021/04/16 02:49:59;;;;;;;6.45;2.45;;;;;;;;;;5043741;28;20057;-78
2021/04/16 02:52:26;;;;;;;6.95;2.17;;;;;;;;;;5054852;28;20041;-78
2021/04/16 02:54:52;;;;;;;5.65;1.80;;;;;;;;;;5048037;28;20033;-78
2021/04/16 02:57:20;;;;;;;4.95;1.95;;;;;;;;;;5056166;28;20469;-78
2021/04/16 02:59:47;;;;;;;7.93;1.90;;;;;;;;;;5053312;28;20526;-78
2021/04/16 03:02:13;;;;;;;6.28;1.85;;;;;;;;;;5052875;28;20040;-78
2021/04/16 03:04:39;;;;;;;6.13;2.10;;;;;;;;;;5052421;28;20095;-78
2021/04/16 03:07:06;;;;;;;7.40;1.90;;;;;;;;;;5051633;28;20079;-78
2021/04/16 03:09:32;;;;;;;4.93;1.92;;;;;;;;;;5031560;28;20117;-78
2021/04/16 03:11:58;;;;;;;6.50;2.30;;;;;;;;;;5046570;28;20541;-78
2021/04/16 03:14:24;;;;;;;5.47;1.95;;;;;;;;;;5026818;28;20044;-78
2021/04/16 03:16:51;;;;;;;6.28;2.00;;;;;;;;;;5038820;28;20041;-78
2021/04/16 03:19:17;;;;;;;5.32;1.98;;;;;;;;;;5038968;28;20041;-78
2021/04/16 03:21:43;;;;;;;10.63;2.03;;;;;;;;;;5052640;28;20041;-78
2021/04/16 03:24:10;;;;;;;7.05;2.38;;;;;;;;;;5054982;28;20050;-78
2021/04/16 03:26:37;;;;;;;9.48;2.13;;;;;;;;;;5039357;28;20472;-78
2021/04/16 03:29:04;;;;;;;8.57;2.25;;;;;;;;;;5037265;28;20534;-78
2021/04/16 03:31:31;;;;;;;8.02;3.72;;;;;;;;;;5044038;28;20473;-78
2021/04/16 03:33:58;;;;;;;7.43;2.72;;;;;;;;;;5049412;28;20084;-78
2021/04/16 03:36:24;;;;;;;10.02;3.05;;;;;;;;;;5043740;28;20086;-78
2021/04/16 03:38:51;;;;;;;10.13;2.80;;;;;;;;;;5042190;28;20096;-78
2021/04/16 03:41:18;;;;;;;7.72;2.70;;;;;;;;;;5057858;28;20066;-78
2021/04/16 03:43:45;;;;;;;9.80;3.00;;;;;;;;;;5050932;28;20735;-78
2021/04/16 03:46:11;;;;;;;8.27;3.17;;;;;;;;;;5065122;28;20045;-78
2021/04/16 03:48:37;;;;;;;7.82;2.50;;;;;;;;;;5060365;28;20098;-78
2021/04/16 03:51:04;;;;;;;6.65;2.45;;;;;;;;;;5065707;28;20090;-78
2021/04/16 03:53:30;;;;;;;8.20;2.70;;;;;;;;;;5071419;28;20475;-78
2021/04/16 03:55:57;;;;;;;8.18;2.45;;;;;;;;;;5072826;28;20183;-78
2021/04/16 03:58:24;;;;;;;10.45;2.75;;;;;;;;;;5064984;28;20040;-78
2021/04/16 04:00:51;;;;;;;9.93;3.05;;;;;;;;;;5060089;28;20037;-78
2021/04/16 04:03:18;;;;;;;8.27;2.60;;;;;;;;;;5068910;28;20132;-78
2021/04/16 04:05:44;;;;;;;8.65;2.20;;;;;;;;;;5066535;28;20442;-78
2021/04/16 04:08:10;;;;;;;6.57;2.38;;;;;;;;;;5065325;28;20067;-78
2021/04/16 04:10:38;;;;;;;11.18;3.10;;;;;;;;;;5064648;28;20033;-78
2021/04/16 04:13:08;;;;;;;4.57;2.17;;;;;;;;;;5063498;28;20044;-78
2021/04/16 04:15:34;;;;;;;6.45;2.20;;;;;;;;;;5061532;28;20040;-78
2021/04/16 04:18:01;;;;;;;4.82;2.28;;;;;;;;;;5061684;28;20049;-78
2021/04/16 04:20:29;;;;;;;4.78;2.00;;;;;;;;;;5062869;28;20057;-78
2021/04/16 04:22:56;;;;;;;5.57;1.98;;;;;;;;;;5065870;28;20048;-78
2021/04/16 04:25:23;;;;;;;4.80;2.50;;;;;;;;;;5060896;28;20079;-78
2021/04/16 04:27:50;;;;;;;8.80;2.85;;;;;;;;;;5069245;28;20120;-78
2021/04/16 04:30:18;;;;;;;8.88;2.90;;;;;;;;;;5063715;28;20115;-78
2021/04/16 04:32:45;;;;;;;8.73;3.20;;;;;;;;;;5064035;28;20123;-78
2021/04/16 04:35:11;;;;;;;9.90;3.45;;;;;;;;;;5063187;28;20476;-79
2021/04/16 04:37:37;;;;;;;10.38;3.25;;;;;;;;;;5068283;28;20046;-78
2021/04/16 04:40:06;;;;;;;8.57;3.20;;;;;;;;;;5070260;28;20040;-79
2021/04/16 04:42:32;;;;;;;10.05;3.25;;;;;;;;;;5067642;28;20047;-78
2021/04/16 04:44:59;;;;;;;7.43;2.58;;;;;;;;;;5060598;28;20062;-79
2021/04/16 04:47:26;;;;;;;4.90;2.70;;;;;;;;;;5062674;28;20110;-78
2021/04/16 04:49:52;;;;;;;13.85;2.72;;;;;;;;;;5063688;28;20056;-79
2021/04/16 04:52:20;;;;;;;9.25;2.97;;;;;;;;;;5058436;28;20071;-79
2021/04/16 04:54:47;;;;;;;10.80;2.88;;;;;;;;;;5056728;28;20111;-79
2021/04/16 04:57:14;;;;;;;10.63;3.60;;;;;;;;;;5056879;28;20033;-79
2021/04/16 04:59:42;;;;;;;13.80;3.40;;;;;;;;;;5064878;28;20218;-78
2021/04/16 05:02:08;;;;;;;9.10;3.13;;;;;;;;;;5059263;28;20048;-78
2021/04/16 05:04:34;;;;;;;9.82;2.88;;;;;;;;;;5066908;28;20361;-79
2021/04/16 05:07:01;;;;;;;8.43;2.80;;;;;;;;;;5068398;28;20063;-79
2021/04/16 05:09:27;;;;;;;6.82;2.67;;;;;;;;;;5067715;28;20051;-79
2021/04/16 05:11:53;;;;;;;5.90;2.50;;;;;;;;;;5064154;28;20119;-77
2021/04/16 05:14:20;;;;;;;7.78;2.85;;;;;;;;;;5062504;28;20645;-78
2021/04/16 05:16:46;;;;;;;7.20;2.95;;;;;;;;;;5059650;28;20120;-79
2021/04/16 05:19:12;;;;;;;11.85;3.45;;;;;;;;;;5057584;28;20086;-79
2021/04/16 05:21:39;;;;;;;9.95;3.05;;;;;;;;;;5064619;28;20506;-79
2021/04/16 05:24:07;;;;;;;11.85;3.55;;;;;;;;;;5060841;28;20432;-78
2021/04/16 05:26:34;;;;;;;21.30;3.72;;;;;;;;;;5055623;28;20429;-79
2021/04/16 05:29:00;;;;;;;9.77;3.50;;;;;;;;;;5062501;28;20421;-79
2021/04/16 05:31:26;;;;;;;7.70;3.15;;;;;;;;;;5060936;28;20484;-79
2021/04/16 05:33:53;;;;;;;9.23;3.22;;;;;;;;;;5066797;28;20330;-79
2021/04/16 05:36:19;;;;;;;6.95;3.08;;;;;;;;;;5068883;28;20532;-78
2021/04/16 05:38:45;;;;;;;5.53;2.67;;;;;;;;;;5066386;28;20044;-78
2021/04/16 05:41:12;;;;;;;10.25;3.00;;;;;;;;;;5059458;28;20231;-79
2021/04/16 05:43:38;;;;;;;8.18;3.22;;;;;;;;;;5064841;28;20041;-78
2021/04/16 05:46:04;;;;;;;10.82;2.95;;;;;;;;;;5064670;28;20044;-79
2021/04/16 05:48:31;;;;;;;11.32;3.85;;;;;;;;;;5048920;28;20045;-78
2021/04/16 05:50:57;;;;;;;9.85;3.33;;;;;;;;;;5063327;28;20483;-91
2021/04/16 05:53:24;;;;;;;11.65;2.88;;;;;;;;;;5060426;28;20190;-79
2021/04/16 05:55:50;;;;;;;6.90;3.40;;;;;;;;;;5056724;28;20068;-79
2021/04/16 05:58:17;;;;;;;6.68;2.92;;;;;;;;;;5062332;28;20115;-80
2021/04/16 06:00:43;;;;;;;11.55;3.25;;;;;;;;;;5060952;28;20045;-79
2021/04/16 06:03:10;;;;;;;9.32;3.63;;;;;;;;;;5055039;28;20040;-80
2021/04/16 06:05:37;;;;;;;9.23;3.40;;;;;;;;;;5061930;28;20041;-80
2021/04/16 06:08:04;;;;;;;13.25;3.83;;;;;;;;;;5061787;28;20635;-80
2021/04/16 06:10:30;;;;;;;9.27;3.13;;;;;;;;;;5062316;28;20059;-80
2021/04/16 06:12:57;;;;;;;12.45;3.80;;;;;;;;;;5065870;28;20044;-80
2021/04/16 06:15:25;;;;;;;11.05;4.50;;;;;;;;;;5062999;28;21691;-80
2021/04/16 06:17:51;;;;;;;13.57;3.42;;;;;;;;;;5065127;28;20044;-86
2021/04/16 06:20:20;;;;;;;12.73;4.13;;;;;;;;;;5058937;28;20043;-80
2021/04/16 06:22:47;;;;;;;11.02;3.50;;;;;;;;;;5066415;28;20041;-80
2021/04/16 06:25:14;;;;;;;13.70;3.53;;;;;;;;;;5064824;28;20044;-80
2021/04/16 06:27:41;;;;;;;12.82;3.80;;;;;;;;;;5064536;28;20053;-80
2021/04/16 06:30:08;;;;;;;9.73;4.18;;;;;;;;;;5058731;28;20109;-80
2021/04/16 06:32:35;;;;;;;22.38;5.85;;;;;;;;;;5060394;28;20037;-80
2021/04/16 06:35:02;;;;;;;14.15;4.63;;;;;;;;;;5067834;28;20484;-79
2021/04/16 06:37:28;;;;;;;17.30;4.43;;;;;;;;;;5064234;28;20036;-86
2021/04/16 06:39:54;;;;;;;14.35;5.20;;;;;;;;;;5069505;28;20062;-82
2021/04/16 06:42:24;;;;;;;15.25;4.47;;;;;;;;;;5064200;28;20140;-81
2021/04/16 06:44:52;;;;;;;11.23;4.90;;;;;;;;;;5075698;28;20508;-86
2021/04/16 06:47:22;;;;;;;22.10;5.00;;;;;;;;;;5056495;28;20036;-80
2021/04/16 06:49:48;;;;;;;18.63;5.78;;;;;;;;;;5059376;28;20063;-80
2021/04/16 06:52:20;;;;;;;16.33;5.00;;;;;;;;;;5062069;28;20044;-79
2021/04/16 06:54:51;;;;;;;29.08;7.97;;;;;;;;;;5059722;28;20767;-78
2021/04/16 06:57:24;;;;;;;21.70;5.25;;;;;;;;;;5064405;28;20075;-81
2021/04/16 06:59:56;;;;;;;19.83;5.75;;;;;;;;;;5062105;28;20503;-82
2021/04/16 07:02:24;;;;;;;22.05;5.90;;;;;;;;;;5068475;28;20044;-79
2021/04/16 07:04:53;;;;;;;16.55;5.25;;;;;;;;;;5067961;28;20043;-79
2021/04/16 07:07:33;;;;;;;20.77;5.38;;;;;;;;;;5068483;28;20136;-79
2021/04/16 07:10:02;;;;;;;14.88;3.83;;;;;;;;;;5073292;28;20116;-79
2021/04/16 07:12:29;;;;;;;12.90;3.92;;;;;;;;;;5071264;28;20134;-79
2021/04/16 07:14:59;;;;;;;14.43;4.47;;;;;;;;;;5073808;28;20036;-79
2021/04/16 07:17:27;;;;;;;13.98;3.35;;;;;;;;;;5067921;28;20040;-79
2021/04/16 07:19:54;;;;;;;16.98;3.78;;;;;;;;;;5074549;28;20041;-79
2021/04/16 07:22:24;;;;;;;19.65;3.88;;;;;;;;;;5071596;28;20380;-79
2021/04/16 07:24:51;;;;;;;15.50;3.28;;;;;;;;;;5069987;28;20049;-79
2021/04/16 07:27:20;;;;;;;12.98;3.17;;;;;;;;;;5072550;28;20032;-79
2021/04/16 07:29:52;;;;;;;11.15;2.92;;;;;;;;;;5070452;28;20053;-79
2021/04/16 07:32:36;;;;;;;10.95;3.30;;;;;;;;;;5067555;28;20165;-79
2021/04/16 07:35:22;;;;;;;11.68;3.78;;;;;;;;;;5069828;28;20064;-79
2021/04/16 07:37:57;;;;;;;7.75;3.20;;;;;;;;;;5068484;28;20063;-79
2021/04/16 07:40:24;;;;;;;10.38;3.00;;;;;;;;;;5072294;28;20115;-79
2021/04/16 07:42:51;;;;;;;9.18;2.72;;;;;;;;;;5072624;28;20130;-79
2021/04/16 07:45:24;;;;;;;12.90;3.33;;;;;;;;;;5072638;28;20092;-79
2021/04/16 07:47:54;;;;;;;12.07;4.80;;;;;;;;;;5068531;28;20476;-79
2021/04/16 07:50:23;;;;;;;9.48;3.58;;;;;;;;;;5055321;28;20217;-79
2021/04/16 07:52:49;;;;;;;13.93;3.90;;;;;;;;;;5071515;28;20036;-79
2021/04/16 07:55:19;;;;;;;9.20;2.90;;;;;;;;;;5074448;28;20122;-79
2021/04/16 07:57:59;;;;;;;10.90;2.50;;;;;;;;;;5072479;28;20040;-79
2021/04/16 08:00:28;;;;;;;7.43;2.35;;;;;;;;;;5070416;28;20484;-79
2021/04/16 08:03:05;;;;;;;7.53;2.17;;;;;;;;;;5066694;28;20051;-79
2021/04/16 08:05:34;;;;;;;11.23;2.17;;;;;;;;;;5083017;28;20036;-79
2021/04/16 08:08:10;;;;;;;9.40;3.50;;;;;;;;;;5070875;28;20052;-79
2021/04/16 08:10:38;;;;;;;10.40;2.40;;;;;;;;;;5074158;28;20082;-79
2021/04/16 08:13:09;;;;;;;7.63;1.70;;;;;;;;;;5068154;28;20072;-79
2021/04/16 08:15:35;;;;;;;9.48;2.10;;;;;;;;;;5075151;28;20040;-79
2021/04/16 08:18:09;;;;;;;6.65;1.67;;;;;;;;;;5069466;28;20139;-79
2021/04/16 08:20:37;;;;;;;8.70;1.58;;;;;;;;;;5069561;28;20040;-79
2021/04/16 08:23:05;;;;;;;7.50;2.10;;;;;;;;;;5071914;28;20044;-79
2021/04/16 08:25:38;;;;;;;11.93;2.25;;;;;;;;;;5086811;28;20076;-79
2021/04/16 08:28:08;;;;;;;5.87;1.73;;;;;;;;;;5070884;28;20048;-79
2021/04/16 08:30:44;;;;;;;4.85;1.63;;;;;;;;;;5070677;28;20347;-79
2021/04/16 08:33:16;;;;;;;6.82;1.80;;;;;;;;;;5071747;28;20071;-79
2021/04/16 08:35:46;;;;;;;4.50;1.23;;;;;;;;;;5069832;28;20443;-79
2021/04/16 08:38:15;;;;;;;5.03;1.40;;;;;;;;;;5071879;28;20064;-79
2021/04/16 08:40:44;;;;;;;6.05;1.48;;;;;;;;;;5050157;28;20123;-79
2021/04/16 08:43:16;;;;;;;5.25;1.30;;;;;;;;;;5053854;28;20056;-79
2021/04/16 08:45:42;;;;;;;7.00;1.65;;;;;;;;;;5071587;28;20048;-79
2021/04/16 08:48:15;;;;;;;5.18;1.90;;;;;;;;;;5073745;28;20088;-79
2021/04/16 08:50:43;;;;;;;6.57;1.98;;;;;;;;;;5070091;28;20480;-79
2021/04/16 08:53:10;;;;;;;5.82;1.65;;;;;;;;;;5069696;28;20052;-80
2021/04/16 08:55:38;;;;;;;7.63;1.75;;;;;;;;;;5070871;28;20043;-79
2021/04/16 08:58:07;;;;;;;7.80;2.00;;;;;;;;;;5071053;28;20041;-79
2021/04/16 09:00:43;;;;;;;8.00;1.98;;;;;;;;;;5071043;28;20379;-80
2021/04/16 09:03:18;;;;;;;7.07;1.98;;;;;;;;;;5067016;28;20117;-79
2021/04/16 09:05:56;;;;;;;5.93;1.67;;;;;;;;;;5073120;28;20052;-79
2021/04/16 09:08:22;;;;;;;10.40;1.70;;;;;;;;;;5068164;28;20499;-79
2021/04/16 09:10:53;;;;;;;6.15;1.30;;;;;;;;;;5068859;28;20147;-79
2021/04/16 09:13:48;;;;;;;5.47;1.75;;;;;;;;;;5071472;28;20036;-79
2021/04/16 09:16:24;;;;;;;4.45;1.20;;;;;;;;;;5066269;28;20059;-79
2021/04/16 09:18:51;;;;;;;3.92;1.00;;;;;;;;;;5068580;28;20041;-79
2021/04/16 09:21:20;;;;;;;4.22;1.40;;;;;;;;;;5069134;28;20037;-80
2021/04/16 09:23:51;;;;;;;3.95;1.45;;;;;;;;;;5068356;28;20048;-80
2021/04/16 09:26:41;;;;;;;4.32;1.40;;;;;;;;;;5068559;28;20040;-80
2021/04/16 09:29:07;;;;;;;3.47;1.10;;;;;;;;;;5065546;28;20040;-79
2021/04/16 09:31:40;;;;;;;4.20;1.27;;;;;;;;;;5067988;28;20052;-79
2021/04/16 09:34:21;;;;;;;2.37;1.17;;;;;;;;;;5068519;28;20464;-79
2021/04/16 09:36:49;;;;;;;2.97;1.10;;;;;;;;;;5062747;28;20044;-80
2021/04/16 09:39:30;;;;;;;9.15;1.42;;;;;;;;;;5064245;28;20041;-80
2021/04/16 09:41:56;;;;;;;3.45;1.40;;;;;;;;;;5064717;28;20112;-79
2021/04/16 09:44:29;;;;;;;4.85;1.35;;;;;;;;;;5064351;28;20041;-79
2021/04/16 09:46:56;;;;;;;3.47;1.35;;;;;;;;;;5068620;28;20120;-80
2021/04/16 09:49:30;;;;;;;3.55;1.42;;;;;;;;;;5070771;28;20082;-79
2021/04/16 09:51:58;;;;;;;3.95;1.70;;;;;;;;;;5070935;28;20071;-79
2021/04/16 09:54:34;;;;;;;6.70;1.48;;;;;;;;;;5070114;28;20666;-80
2021/04/16 09:57:08;;;;;;;7.07;2.28;;;;;;;;;;5068601;28;20036;-80
2021/04/16 09:59:36;;;;;;;5.95;2.20;;;;;;;;;;5069858;28;20045;-80
2021/04/16 10:02:17;;;;;;;6.82;1.67;;;;;;;;;;5068279;28;20059;-80
2021/04/16 10:04:56;;;;;;;4.32;1.42;;;;;;;;;;5066727;28;20098;-80
2021/04/16 10:07:24;;;;;;;9.18;2.80;;;;;;;;;;5067367;28;20098;-80
2021/04/16 10:09:50;;;;;;;6.82;1.67;;;;;;;;;;5064374;28;20048;-80
2021/04/16 10:12:20;;;;;;;7.05;2.00;;;;;;;;;;5070182;28;20056;-80
2021/04/16 10:14:46;;;;;;;5.10;1.10;;;;;;;;;;5068115;28;20076;-80
2021/04/16 10:17:14;;;;;;;2.85;1.20;;;;;;;;;;5071557;28;20407;-80
2021/04/16 10:19:42;;;;;;;4.13;1.38;;;;;;;;;;5067203;28;20119;-80
2021/04/16 10:22:10;;;;;;;3.75;1.38;;;;;;;;;;5073058;28;20047;-80
2021/04/16 10:28:11;;;;;;;3.08;1.30;;;;;;;;;;5069329;28;20068;-80
2021/04/16 10:31:10;;;;;;;3.95;1.38;;;;;;;;;;5069631;28;20040;-80
2021/04/16 10:53:53;;;;;;;4.30;1.35;;;;;;;;;;5046008;28;20037;-80
2021/04/16 10:56:24;;;;;;;4.90;1.60;;;;;;;;;;5043240;28;20033;-80
2021/04/16 10:59:40;;;;;;;4.97;1.65;;;;;;;;;;5046597;28;20784;-80
2021/04/16 12:38:20;;;;;;;10.32;2.45;;;;;;;;;;5049797;28;20039;-80
2021/04/16 12:40:46;;;;;;;7.75;2.50;;;;;;;;;;5030359;28;20118;-80
2021/04/16 12:43:12;;;;;;;10.50;3.10;;;;;;;;;;5048452;28;20515;-80
2021/04/16 12:45:39;;;;;;;11.13;2.80;;;;;;;;;;5061256;28;20049;-80
2021/04/16 12:48:05;;;;;;;11.00;3.00;;;;;;;;;;5067395;28;20190;-80
2021/04/16 12:50:33;;;;;;;13.27;3.03;;;;;;;;;;5068341;28;20040;-80
2021/04/16 12:52:59;;;;;;;10.27;2.90;;;;;;;;;;5070020;28;20040;-80
2021/04/16 12:55:26;;;;;;;6.80;2.60;;;;;;;;;;5074493;28;20108;-79
2021/04/16 12:57:55;;;;;;;8.13;2.80;;;;;;;;;;5069701;28;20041;-80
2021/04/16 13:00:23;;;;;;;10.10;2.80;;;;;;;;;;5066191;28;20139;-80
2021/04/16 13:02:58;;;;;;;10.50;3.00;;;;;;;;;;5070122;28;20121;-85
2021/04/16 13:05:26;;;;;;;9.52;2.70;;;;;;;;;;5065592;28;20403;-92
2021/04/16 13:07:53;;;;;;;8.13;2.38;;;;;;;;;;5070473;28;20072;-86
2021/04/16 13:10:19;;;;;;;7.50;2.63;;;;;;;;;;5074845;28;20079;-84
2021/04/16 13:12:46;;;;;;;11.40;2.85;;;;;;;;;;5077947;28;20036;-90
2021/04/16 13:15:13;;;;;;;7.95;2.47;;;;;;;;;;5060240;28;20507;-78
2021/04/16 13:17:41;;;;;;;11.15;2.85;;;;;;;;;;5066026;28;20045;-69
2021/04/16 13:20:11;;;;;;;11.00;2.75;;;;;;;;;;5063773;28;20044;-69
2021/04/16 13:22:37;;;;;;;9.25;2.70;;;;;;;;;;5064896;28;20113;-82
2021/04/16 13:25:04;;;;;;;8.50;2.50;;;;;;;;;;5064536;28;20064;-69
2021/04/16 13:27:31;;;;;;;12.55;2.78;;;;;;;;;;5066241;28;20479;-69
2021/04/16 13:29:58;;;;;;;8.75;2.60;;;;;;;;;;5065138;28;20045;-69
2021/04/16 13:32:27;;;;;;;8.93;3.25;;;;;;;;;;5067252;28;20048;-69
2021/04/16 13:34:54;;;;;;;8.65;2.53;;;;;;;;;;5067176;28;20123;-69
2021/04/16 13:37:31;;;;;;;17.02;3.88;;;;;;;;;;5061277;28;22784;-69
2021/04/16 13:39:58;;;;;;;10.20;3.03;;;;;;;;;;5066870;28;20047;-70
2021/04/16 13:42:24;;;;;;;8.75;3.25;;;;;;;;;;5063583;28;20079;-70
2021/04/16 13:44:50;;;;;;;9.48;3.25;;;;;;;;;;5065648;28;20052;-70
2021/04/16 13:47:20;;;;;;;11.95;3.00;;;;;;;;;;5044139;28;20123;-70
2021/04/16 13:49:46;;;;;;;11.20;2.90;;;;;;;;;;5048290;28;20074;-70
2021/04/16 13:52:12;;;;;;;9.32;2.90;;;;;;;;;;5046387;28;20060;-70
2021/04/16 13:54:39;;;;;;;11.15;2.72;;;;;;;;;;5051262;28;20056;-70
2021/04/16 13:57:06;;;;;;;9.32;2.78;;;;;;;;;;5049379;28;20089;-74
2021/04/16 13:59:33;;;;;;;7.05;2.80;;;;;;;;;;5043317;28;20042;-70
2021/04/16 14:01:59;;;;;;;8.45;3.00;;;;;;;;;;5052079;28;20081;-69
2021/04/16 14:04:27;;;;;;;10.45;3.00;;;;;;;;;;5048913;28;20428;-70
2021/04/16 14:06:56;;;;;;;10.10;3.22;;;;;;;;;;5044696;28;20168;-69
2021/04/16 14:09:23;;;;;;;5.78;2.45;;;;;;;;;;5044640;28;20128;-69
2021/04/16 14:11:50;;;;;;;8.25;2.90;;;;;;;;;;5039034;28;20049;-69
2021/04/16 14:14:25;;;;;;;8.27;3.15;;;;;;;;;;5049598;28;20041;-69
2021/04/16 14:16:52;;;;;;;8.38;3.17;;;;;;;;;;5048466;28;20183;-70
2021/04/16 14:19:20;;;;;;;11.50;3.15;;;;;;;;;;5050006;28;20029;-70
2021/04/16 14:21:48;;;;;;;10.27;3.25;;;;;;;;;;5047137;28;20048;-69
2021/04/16 14:24:15;;;;;;;11.27;3.47;;;;;;;;;;5052481;28;20064;-69
2021/04/16 14:26:42;;;;;;;11.80;3.42;;;;;;;;;;5029096;28;20563;-69
2021/04/16 14:29:09;;;;;;;9.30;2.80;;;;;;;;;;5050192;28;20066;-69
2021/04/16 14:31:37;;;;;;;7.68;2.53;;;;;;;;;;5046515;28;20120;-70
2021/04/16 14:34:04;;;;;;;10.05;2.97;;;;;;;;;;5032496;28;20155;-69
2021/04/16 14:36:30;;;;;;;9.75;2.92;;;;;;;;;;5047579;28;20171;-70
2021/04/16 14:38:57;;;;;;;8.82;2.75;;;;;;;;;;5048193;28;20118;-70
2021/04/16 14:41:25;;;;;;;7.32;2.20;;;;;;;;;;5047882;28;20392;-69
2021/04/16 14:43:52;;;;;;;7.90;2.60;;;;;;;;;;5046319;28;20060;-69
2021/04/16 14:46:18;;;;;;;10.80;2.50;;;;;;;;;;5047271;28;20049;-69
2021/04/16 14:48:44;;;;;;;7.13;2.17;;;;;;;;;;5045980;28;22143;-69
2021/04/16 14:51:11;;;;;;;7.00;2.58;;;;;;;;;;5046591;28;20099;-69
2021/04/16 14:53:43;;;;;;;7.43;2.78;;;;;;;;;;5046294;28;20425;-69
2021/04/16 14:56:11;;;;;;;5.50;2.28;;;;;;;;;;5048933;28;20041;-70
2021/04/16 14:58:40;;;;;;;6.28;2.53;;;;;;;;;;5048834;28;20045;-69
2021/04/16 15:01:07;;;;;;;7.57;2.53;;;;;;;;;;5048320;28;20045;-69
2021/04/16 15:03:34;;;;;;;9.88;3.08;;;;;;;;;;5046797;28;20060;-70
2021/04/16 15:06:01;;;;;;;7.32;2.05;;;;;;;;;;5044571;28;20041;-72
2021/04/16 15:08:30;;;;;;;5.88;2.10;;;;;;;;;;5042916;28;20057;-72
2021/04/16 15:11:02;;;;;;;6.95;2.30;;;;;;;;;;5046452;28;20144;-72
2021/04/16 15:13:29;;;;;;;4.68;2.00;;;;;;;;;;5045233;28;20095;-72
2021/04/16 15:16:00;;;;;;;4.93;1.40;;;;;;;;;;5042150;28;20044;-71
2021/04/16 15:18:26;;;;;;;5.55;1.88;;;;;;;;;;5043747;28;20068;-72
2021/04/16 15:20:53;;;;;;;5.38;1.70;;;;;;;;;;5048443;28;20106;-72
2021/04/16 15:23:19;;;;;;;7.13;1.80;;;;;;;;;;5044938;28;20276;-71
2021/04/16 15:25:47;;;;;;;4.30;1.45;;;;;;;;;;5046535;28;20045;-71
2021/04/16 15:28:19;;;;;;;4.13;1.20;;;;;;;;;;5050554;28;20053;-69
2021/04/16 15:30:46;;;;;;;7.93;1.65;;;;;;;;;;5051284;28;20041;-69
2021/04/16 15:33:15;;;;;;;4.88;2.03;;;;;;;;;;5052242;28;20041;-69
2021/04/16 15:47:00;;;;;;;5.50;2.05;;;;;;;;;;5062483;28;20048;-68
2021/04/16 15:49:26;;;;;;;7.45;2.00;;;;;;;;;;5070741;28;20045;-68
2021/04/16 15:51:53;;;;;;;5.32;1.90;;;;;;;;;;5073005;28;20144;-68
2021/04/16 15:54:19;;;;;;;4.38;1.70;;;;;;;;;;5068939;28;20480;-69
2021/04/16 15:56:47;;;;;;;7.35;1.77;;;;;;;;;;5068368;28;20048;-69
2021/04/16 15:59:18;;;;;;;17.52;2.03;;;;;;;;;;5072490;28;20052;-68
2021/04/16 16:01:45;;;;;;;6.47;1.40;;;;;;;;;;5072737;28;20044;-68
2021/04/16 16:04:12;;;;;;;4.88;1.25;;;;;;;;;;5070544;28;20049;-67
2021/04/16 16:06:40;;;;;;;6.65;1.50;;;;;;;;;;5069805;28;20043;-67
2021/04/16 16:09:06;;;;;;;6.35;1.52;;;;;;;;;;5071383;28;20045;-67
2021/04/16 16:11:38;;;;;;;7.03;1.60;;;;;;;;;;5068991;28;20475;-68
2021/04/16 16:14:05;;;;;;;6.03;1.90;;;;;;;;;;5072685;28;20135;-67
2021/04/16 16:16:32;;;;;;;5.13;1.60;;;;;;;;;;5067281;28;20041;-68
2021/04/16 16:18:58;;;;;;;6.90;1.73;;;;;;;;;;5069541;28;20066;-68
2021/04/16 16:21:25;;;;;;;7.38;1.98;;;;;;;;;;5062221;28;20465;-68
2021/04/16 16:23:52;;;;;;;4.40;1.60;;;;;;;;;;5062470;28;20056;-68
2021/04/16 16:26:25;;;;;;;7.80;2.45;;;;;;;;;;5063557;28;20044;-68
2021/04/16 16:28:52;;;;;;;9.55;2.65;;;;;;;;;;5067472;28;20097;-68
2021/04/16 16:31:19;;;;;;;4.00;1.88;;;;;;;;;;5061143;28;20101;-68
2021/04/16 16:33:45;;;;;;;6.88;2.03;;;;;;;;;;5061672;28;20048;-68
2021/04/16 16:36:11;;;;;;;6.00;1.73;;;;;;;;;;5064912;28;20092;-68
2021/04/16 16:38:38;;;;;;;5.90;1.65;;;;;;;;;;5062845;28;20052;-67
2021/04/16 16:41:04;;;;;;;10.35;2.10;;;;;;;;;;5059334;28;20102;-71
2021/04/16 16:43:33;;;;;;;6.53;1.75;;;;;;;;;;5060775;28;20049;-75
2021/04/16 16:46:08;;;;;;;3.40;1.60;;;;;;;;;;5050920;28;20087;-83
2021/04/16 16:48:35;;;;;;;6.78;1.83;;;;;;;;;;5028989;28;20065;-84
2021/04/16 16:51:01;;;;;;;7.43;1.90;;;;;;;;;;5044561;28;20037;-80
2021/04/16 16:53:28;;;;;;;5.70;1.52;;;;;;;;;;5046903;28;20545;-68
2021/04/16 16:55:55;;;;;;;4.60;1.60;;;;;;;;;;5041843;28;20384;-68
2021/04/16 16:58:25;;;;;;;7.93;1.88;;;;;;;;;;5049789;28;20048;-68